Komatsu, Japan
Current Conditions -  °F | °C
As of 1:00 PM on Thursday 23 Oct 2014 (Local Time) from RJNK Reporting Station
Few Clouds Few Clouds  
Wind Chill: 64°   Ceiling: Unl
Heat Index: 64°   Visibility: 6mi
Dew Point: 48°   Wind: 17mph
Humidity: 56%   Direction: 40°NE
Pressure: 30.06"   Gusts: NA
Location:  36.41°N, 136.44°E
Report Text: RJNK 230400Z 04015KT 9999 FEW020 18/09 Q1018
Loading
Personal Weather Stations






























Interactive Weather Map
Tropical Storm Tracking
New forecast layout! Learn more

10-Day Weather Forecast

Advertisements
Track Severe Weather on mobile